sensor_id;sensor_type;location;lat;lon;timestamp;P1;durP1;ratioP1;P2;durP2;ratioP2
41426;SDS011;27171;51.812;19.514;2023-04-15T00:05:50;7.43;;;5.32;;
41426;SDS011;27171;51.812;19.514;2023-04-15T00:08:51;6.13;;;5.25;;
41426;SDS011;27171;51.812;19.514;2023-04-15T00:11:52;7.43;;;5.68;;
41426;SDS011;27171;51.812;19.514;2023-04-15T00:14:53;6.57;;;5.35;;
41426;SDS011;27171;51.812;19.514;2023-04-15T00:20:55;6.18;;;4.95;;
41426;SDS011;27171;51.812;19.514;2023-04-15T00:23:57;6.63;;;5.30;;
41426;SDS011;27171;51.812;19.514;2023-04-15T00:26:58;7.00;;;5.95;;
41426;SDS011;27171;51.812;19.514;2023-04-15T00:29:59;7.22;;;5.78;;
41426;SDS011;27171;51.812;19.514;2023-04-15T00:36:01;6.28;;;5.30;;
41426;SDS011;27171;51.812;19.514;2023-04-15T00:39:02;6.28;;;4.97;;
41426;SDS011;27171;51.812;19.514;2023-04-15T00:42:03;8.13;;;6.10;;
41426;SDS011;27171;51.812;19.514;2023-04-15T00:45:05;6.55;;;5.82;;
41426;SDS011;27171;51.812;19.514;2023-04-15T00:48:06;6.07;;;4.95;;
41426;SDS011;27171;51.812;19.514;2023-04-15T00:51:07;6.68;;;5.85;;
41426;SDS011;27171;51.812;19.514;2023-04-15T00:54:09;7.78;;;5.95;;
41426;SDS011;27171;51.812;19.514;2023-04-15T00:57:10;8.75;;;5.47;;
41426;SDS011;27171;51.812;19.514;2023-04-15T01:00:11;6.40;;;5.50;;
41426;SDS011;27171;51.812;19.514;2023-04-15T01:03:12;6.53;;;5.80;;
41426;SDS011;27171;51.812;19.514;2023-04-15T01:06:14;7.38;;;5.75;;
41426;SDS011;27171;51.812;19.514;2023-04-15T01:09:15;7.00;;;5.63;;
41426;SDS011;27171;51.812;19.514;2023-04-15T01:12:17;7.00;;;5.78;;
41426;SDS011;27171;51.812;19.514;2023-04-15T01:15:19;9.27;;;5.60;;
41426;SDS011;27171;51.812;19.514;2023-04-15T01:21:22;5.90;;;5.20;;
41426;SDS011;27171;51.812;19.514;2023-04-15T01:24:23;6.30;;;5.53;;
41426;SDS011;27171;51.812;19.514;2023-04-15T01:27:28;6.53;;;5.82;;
41426;SDS011;27171;51.812;19.514;2023-04-15T01:30:32;7.45;;;6.03;;
41426;SDS011;27171;51.812;19.514;2023-04-15T01:33:34;8.30;;;6.40;;
41426;SDS011;27171;51.812;19.514;2023-04-15T01:36:49;7.22;;;6.53;;
41426;SDS011;27171;51.812;19.514;2023-04-15T01:42:50;7.50;;;5.85;;
41426;SDS011;27171;51.812;19.514;2023-04-15T01:45:53;8.18;;;6.85;;
41426;SDS011;27171;51.812;19.514;2023-04-15T01:48:55;7.70;;;6.50;;
41426;SDS011;27171;51.812;19.514;2023-04-15T01:51:57;8.05;;;7.20;;
41426;SDS011;27171;51.812;19.514;2023-04-15T01:55:00;7.88;;;6.93;;
41426;SDS011;27171;51.812;19.514;2023-04-15T01:58:02;7.72;;;6.93;;
41426;SDS011;27171;51.812;19.514;2023-04-15T02:01:04;8.50;;;6.75;;
41426;SDS011;27171;51.812;19.514;2023-04-15T02:04:07;8.30;;;7.15;;
41426;SDS011;27171;51.812;19.514;2023-04-15T02:07:09;7.57;;;6.88;;
41426;SDS011;27171;51.812;19.514;2023-04-15T02:10:11;8.85;;;6.85;;
41426;SDS011;27171;51.812;19.514;2023-04-15T02:13:14;8.48;;;7.57;;
41426;SDS011;27171;51.812;19.514;2023-04-15T02:16:16;8.00;;;7.03;;
41426;SDS011;27171;51.812;19.514;2023-04-15T02:19:19;8.50;;;7.60;;
41426;SDS011;27171;51.812;19.514;2023-04-15T02:22:21;9.55;;;8.55;;
41426;SDS011;27171;51.812;19.514;2023-04-15T02:25:24;8.38;;;7.40;;
41426;SDS011;27171;51.812;19.514;2023-04-15T02:28:26;8.38;;;7.47;;
41426;SDS011;27171;51.812;19.514;2023-04-15T02:31:28;9.55;;;8.60;;
41426;SDS011;27171;51.812;19.514;2023-04-15T02:34:30;9.50;;;8.45;;
41426;SDS011;27171;51.812;19.514;2023-04-15T02:37:34;8.48;;;7.68;;
41426;SDS011;27171;51.812;19.514;2023-04-15T02:40:38;9.70;;;8.63;;
41426;SDS011;27171;51.812;19.514;2023-04-15T02:43:41;9.98;;;9.05;;
41426;SDS011;27171;51.812;19.514;2023-04-15T02:46:45;9.48;;;8.57;;
41426;SDS011;27171;51.812;19.514;2023-04-15T02:49:47;9.60;;;8.70;;
41426;SDS011;27171;51.812;19.514;2023-04-15T02:52:49;9.27;;;8.18;;
41426;SDS011;27171;51.812;19.514;2023-04-15T02:55:52;9.77;;;8.73;;
41426;SDS011;27171;51.812;19.514;2023-04-15T02:58:54;9.75;;;8.85;;
41426;SDS011;27171;51.812;19.514;2023-04-15T03:01:58;9.48;;;8.27;;
41426;SDS011;27171;51.812;19.514;2023-04-15T03:05:00;9.02;;;8.23;;
41426;SDS011;27171;51.812;19.514;2023-04-15T03:08:04;9.10;;;8.20;;
41426;SDS011;27171;51.812;19.514;2023-04-15T03:11:06;9.15;;;8.25;;
41426;SDS011;27171;51.812;19.514;2023-04-15T03:14:08;9.73;;;8.73;;
41426;SDS011;27171;51.812;19.514;2023-04-15T03:17:15;10.07;;;8.43;;
41426;SDS011;27171;51.812;19.514;2023-04-15T03:20:19;9.27;;;8.27;;
41426;SDS011;27171;51.812;19.514;2023-04-15T03:23:23;8.50;;;7.70;;
41426;SDS011;27171;51.812;19.514;2023-04-15T03:26:29;8.55;;;7.75;;
41426;SDS011;27171;51.812;19.514;2023-04-15T03:29:46;11.82;;;8.25;;
41426;SDS011;27171;51.812;19.514;2023-04-15T03:32:51;9.20;;;8.30;;
41426;SDS011;27171;51.812;19.514;2023-04-15T03:35:53;8.45;;;7.65;;
41426;SDS011;27171;51.812;19.514;2023-04-15T03:38:55;9.88;;;8.88;;
41426;SDS011;27171;51.812;19.514;2023-04-15T03:41:58;9.85;;;8.02;;
41426;SDS011;27171;51.812;19.514;2023-04-15T03:45:00;8.88;;;7.93;;
41426;SDS011;27171;51.812;19.514;2023-04-15T03:48:02;7.80;;;7.00;;
41426;SDS011;27171;51.812;19.514;2023-04-15T03:51:05;8.15;;;7.40;;
41426;SDS011;27171;51.812;19.514;2023-04-15T03:54:07;7.78;;;6.78;;
41426;SDS011;27171;51.812;19.514;2023-04-15T03:57:10;7.93;;;7.05;;
41426;SDS011;27171;51.812;19.514;2023-04-15T04:00:12;8.60;;;7.80;;
41426;SDS011;27171;51.812;19.514;2023-04-15T04:03:14;9.63;;;7.75;;
41426;SDS011;27171;51.812;19.514;2023-04-15T04:06:17;8.73;;;7.68;;
41426;SDS011;27171;51.812;19.514;2023-04-15T04:09:19;9.23;;;7.57;;
41426;SDS011;27171;51.812;19.514;2023-04-15T04:12:21;8.43;;;7.65;;
41426;SDS011;27171;51.812;19.514;2023-04-15T04:15:24;7.63;;;6.57;;
41426;SDS011;27171;51.812;19.514;2023-04-15T04:18:26;8.25;;;7.45;;
41426;SDS011;27171;51.812;19.514;2023-04-15T04:21:28;8.88;;;7.97;;
41426;SDS011;27171;51.812;19.514;2023-04-15T04:24:30;9.60;;;8.35;;
41426;SDS011;27171;51.812;19.514;2023-04-15T04:27:33;8.65;;;7.85;;
41426;SDS011;27171;51.812;19.514;2023-04-15T04:30:35;8.85;;;7.95;;
41426;SDS011;27171;51.812;19.514;2023-04-15T04:33:38;8.77;;;7.97;;
41426;SDS011;27171;51.812;19.514;2023-04-15T04:36:40;9.77;;;8.88;;
41426;SDS011;27171;51.812;19.514;2023-04-15T04:39:43;8.65;;;7.85;;
41426;SDS011;27171;51.812;19.514;2023-04-15T04:42:45;8.57;;;7.78;;
41426;SDS011;27171;51.812;19.514;2023-04-15T04:45:47;8.77;;;7.88;;
41426;SDS011;27171;51.812;19.514;2023-04-15T04:48:50;8.40;;;7.60;;
41426;SDS011;27171;51.812;19.514;2023-04-15T04:51:52;7.90;;;7.13;;
41426;SDS011;27171;51.812;19.514;2023-04-15T04:54:55;7.72;;;6.78;;
41426;SDS011;27171;51.812;19.514;2023-04-15T04:57:57;8.60;;;7.80;;
41426;SDS011;27171;51.812;19.514;2023-04-15T05:00:59;7.45;;;6.80;;
41426;SDS011;27171;51.812;19.514;2023-04-15T05:04:02;6.80;;;6.10;;
41426;SDS011;27171;51.812;19.514;2023-04-15T05:07:04;7.72;;;6.95;;
41426;SDS011;27171;51.812;19.514;2023-04-15T05:10:07;7.93;;;6.25;;
41426;SDS011;27171;51.812;19.514;2023-04-15T05:13:10;6.78;;;6.18;;
41426;SDS011;27171;51.812;19.514;2023-04-15T05:16:12;6.40;;;5.80;;
41426;SDS011;27171;51.812;19.514;2023-04-15T05:19:14;6.50;;;5.82;;
41426;SDS011;27171;51.812;19.514;2023-04-15T05:22:16;5.85;;;5.35;;
41426;SDS011;27171;51.812;19.514;2023-04-15T05:25:19;6.78;;;5.63;;
41426;SDS011;27171;51.812;19.514;2023-04-15T05:28:21;6.75;;;6.15;;
41426;SDS011;27171;51.812;19.514;2023-04-15T05:31:24;6.10;;;5.50;;
41426;SDS011;27171;51.812;19.514;2023-04-15T05:34:26;5.55;;;5.05;;
41426;SDS011;27171;51.812;19.514;2023-04-15T05:37:28;5.10;;;4.60;;
41426;SDS011;27171;51.812;19.514;2023-04-15T05:40:30;5.03;;;4.50;;
41426;SDS011;27171;51.812;19.514;2023-04-15T05:43:33;4.63;;;4.22;;
41426;SDS011;27171;51.812;19.514;2023-04-15T05:46:35;5.10;;;4.60;;
41426;SDS011;27171;51.812;19.514;2023-04-15T05:49:37;5.15;;;4.65;;
41426;SDS011;27171;51.812;19.514;2023-04-15T05:52:39;5.72;;;5.15;;
41426;SDS011;27171;51.812;19.514;2023-04-15T05:55:42;6.35;;;5.45;;
41426;SDS011;27171;51.812;19.514;2023-04-15T05:58:45;6.07;;;5.18;;
41426;SDS011;27171;51.812;19.514;2023-04-15T06:01:47;6.68;;;5.82;;
41426;SDS011;27171;51.812;19.514;2023-04-15T06:04:50;6.38;;;5.78;;
41426;SDS011;27171;51.812;19.514;2023-04-15T06:07:52;5.88;;;5.35;;
41426;SDS011;27171;51.812;19.514;2023-04-15T06:10:54;5.65;;;5.07;;
41426;SDS011;27171;51.812;19.514;2023-04-15T06:13:57;5.85;;;5.25;;
41426;SDS011;27171;51.812;19.514;2023-04-15T06:16:59;6.05;;;5.45;;
41426;SDS011;27171;51.812;19.514;2023-04-15T06:20:01;6.43;;;5.53;;
41426;SDS011;27171;51.812;19.514;2023-04-15T06:23:04;6.20;;;5.60;;
41426;SDS011;27171;51.812;19.514;2023-04-15T06:26:07;6.03;;;5.50;;
41426;SDS011;27171;51.812;19.514;2023-04-15T06:29:09;7.97;;;6.30;;
41426;SDS011;27171;51.812;19.514;2023-04-15T06:32:11;6.03;;;5.43;;
41426;SDS011;27171;51.812;19.514;2023-04-15T06:35:13;6.18;;;5.57;;
41426;SDS011;27171;51.812;19.514;2023-04-15T06:38:16;6.15;;;5.43;;
41426;SDS011;27171;51.812;19.514;2023-04-15T06:41:18;6.00;;;5.20;;
41426;SDS011;27171;51.812;19.514;2023-04-15T06:44:20;6.25;;;5.65;;
41426;SDS011;27171;51.812;19.514;2023-04-15T06:47:25;6.40;;;5.82;;
41426;SDS011;27171;51.812;19.514;2023-04-15T06:50:27;6.07;;;5.47;;
41426;SDS011;27171;51.812;19.514;2023-04-15T06:53:29;6.40;;;5.80;;
41426;SDS011;27171;51.812;19.514;2023-04-15T06:56:32;6.65;;;6.03;;
41426;SDS011;27171;51.812;19.514;2023-04-15T06:59:34;6.45;;;5.80;;
41426;SDS011;27171;51.812;19.514;2023-04-15T07:02:37;7.10;;;6.40;;
41426;SDS011;27171;51.812;19.514;2023-04-15T07:05:39;6.68;;;6.00;;
41426;SDS011;27171;51.812;19.514;2023-04-15T07:08:41;7.22;;;6.00;;
41426;SDS011;27171;51.812;19.514;2023-04-15T07:11:44;5.88;;;5.28;;
41426;SDS011;27171;51.812;19.514;2023-04-15T07:14:46;6.93;;;5.50;;
41426;SDS011;27171;51.812;19.514;2023-04-15T07:17:48;6.95;;;6.25;;
41426;SDS011;27171;51.812;19.514;2023-04-15T07:20:51;6.15;;;5.55;;
41426;SDS011;27171;51.812;19.514;2023-04-15T07:23:53;6.25;;;5.65;;
41426;SDS011;27171;51.812;19.514;2023-04-15T07:26:55;6.10;;;5.53;;
41426;SDS011;27171;51.812;19.514;2023-04-15T07:29:57;6.05;;;5.43;;
41426;SDS011;27171;51.812;19.514;2023-04-15T07:33:00;5.97;;;5.38;;
41426;SDS011;27171;51.812;19.514;2023-04-15T07:36:02;5.97;;;5.00;;
41426;SDS011;27171;51.812;19.514;2023-04-15T07:39:06;6.45;;;5.80;;
41426;SDS011;27171;51.812;19.514;2023-04-15T07:42:09;6.03;;;5.05;;
41426;SDS011;27171;51.812;19.514;2023-04-15T07:45:13;6.60;;;5.82;;
41426;SDS011;27171;51.812;19.514;2023-04-15T07:48:16;5.85;;;5.13;;
41426;SDS011;27171;51.812;19.514;2023-04-15T07:51:19;6.47;;;5.88;;
41426;SDS011;27171;51.812;19.514;2023-04-15T07:54:22;7.07;;;5.97;;
41426;SDS011;27171;51.812;19.514;2023-04-15T07:57:24;6.80;;;6.20;;
41426;SDS011;27171;51.812;19.514;2023-04-15T08:00:27;8.18;;;7.10;;
41426;SDS011;27171;51.812;19.514;2023-04-15T08:03:29;8.25;;;7.28;;
41426;SDS011;27171;51.812;19.514;2023-04-15T08:06:32;7.60;;;6.85;;
41426;SDS011;27171;51.812;19.514;2023-04-15T08:09:34;9.90;;;7.93;;
41426;SDS011;27171;51.812;19.514;2023-04-15T08:12:36;8.95;;;8.05;;
41426;SDS011;27171;51.812;19.514;2023-04-15T08:15:39;9.60;;;8.30;;
41426;SDS011;27171;51.812;19.514;2023-04-15T08:18:41;9.27;;;8.07;;
41426;SDS011;27171;51.812;19.514;2023-04-15T08:21:43;9.75;;;8.52;;
41426;SDS011;27171;51.812;19.514;2023-04-15T08:24:46;9.63;;;8.63;;
41426;SDS011;27171;51.812;19.514;2023-04-15T08:27:48;10.07;;;9.07;;
41426;SDS011;27171;51.812;19.514;2023-04-15T08:30:51;9.40;;;8.40;;
41426;SDS011;27171;51.812;19.514;2023-04-15T08:33:55;9.43;;;8.38;;
41426;SDS011;27171;51.812;19.514;2023-04-15T08:36:58;8.35;;;7.32;;
41426;SDS011;27171;51.812;19.514;2023-04-15T08:40:01;11.80;;;9.85;;
41426;SDS011;27171;51.812;19.514;2023-04-15T08:43:04;9.55;;;7.43;;
41426;SDS011;27171;51.812;19.514;2023-04-15T08:46:11;7.85;;;7.05;;
41426;SDS011;27171;51.812;19.514;2023-04-15T08:49:14;13.18;;;10.85;;
41426;SDS011;27171;51.812;19.514;2023-04-15T08:52:19;10.68;;;9.57;;
41426;SDS011;27171;51.812;19.514;2023-04-15T08:55:22;12.57;;;10.00;;
41426;SDS011;27171;51.812;19.514;2023-04-15T08:58:27;9.90;;;8.88;;
41426;SDS011;27171;51.812;19.514;2023-04-15T09:01:30;8.88;;;7.97;;
41426;SDS011;27171;51.812;19.514;2023-04-15T09:04:33;8.98;;;8.00;;
41426;SDS011;27171;51.812;19.514;2023-04-15T09:07:38;13.20;;;11.35;;
41426;SDS011;27171;51.812;19.514;2023-04-15T09:10:40;10.13;;;8.98;;
41426;SDS011;27171;51.812;19.514;2023-04-15T09:13:43;8.45;;;7.65;;
41426;SDS011;27171;51.812;19.514;2023-04-15T09:17:20;8.90;;;7.32;;
41426;SDS011;27171;51.812;19.514;2023-04-15T09:20:19;9.80;;;8.82;;
41426;SDS011;27171;51.812;19.514;2023-04-15T09:23:21;9.77;;;8.50;;
41426;SDS011;27171;51.812;19.514;2023-04-15T09:26:30;9.23;;;8.32;;
41426;SDS011;27171;51.812;19.514;2023-04-15T09:29:35;8.05;;;7.35;;
41426;SDS011;27171;51.812;19.514;2023-04-15T09:32:46;8.50;;;7.65;;
41426;SDS011;27171;51.812;19.514;2023-04-15T09:35:59;7.60;;;6.90;;
41426;SDS011;27171;51.812;19.514;2023-04-15T09:39:04;9.63;;;8.65;;
41426;SDS011;27171;51.812;19.514;2023-04-15T09:42:07;9.57;;;8.60;;
41426;SDS011;27171;51.812;19.514;2023-04-15T09:53:41;9.27;;;8.38;;
41426;SDS011;27171;51.812;19.514;2023-04-15T09:56:43;8.65;;;7.72;;
41426;SDS011;27171;51.812;19.514;2023-04-15T09:59:46;8.65;;;6.72;;
41426;SDS011;27171;51.812;19.514;2023-04-15T10:02:49;8.25;;;6.93;;
41426;SDS011;27171;51.812;19.514;2023-04-15T10:05:52;8.23;;;7.43;;
41426;SDS011;27171;51.812;19.514;2023-04-15T10:08:57;6.38;;;5.78;;
41426;SDS011;27171;51.812;19.514;2023-04-15T10:12:00;6.43;;;5.82;;
41426;SDS011;27171;51.812;19.514;2023-04-15T10:15:04;7.70;;;6.93;;
41426;SDS011;27171;51.812;19.514;2023-04-15T10:18:07;7.60;;;6.95;;
41426;SDS011;27171;51.812;19.514;2023-04-15T10:21:10;7.13;;;6.45;;
41426;SDS011;27171;51.812;19.514;2023-04-15T10:24:13;6.53;;;5.85;;
41426;SDS011;27171;51.812;19.514;2023-04-15T10:27:16;7.05;;;6.28;;
41426;SDS011;27171;51.812;19.514;2023-04-15T10:30:19;8.35;;;7.45;;
41426;SDS011;27171;51.812;19.514;2023-04-15T10:33:22;7.13;;;6.50;;
41426;SDS011;27171;51.812;19.514;2023-04-15T10:36:26;5.50;;;5.00;;
41426;SDS011;27171;51.812;19.514;2023-04-15T10:39:38;7.38;;;5.55;;
41426;SDS011;27171;51.812;19.514;2023-04-15T10:42:42;6.60;;;5.20;;
41426;SDS011;27171;51.812;19.514;2023-04-15T10:45:44;6.10;;;5.50;;
41426;SDS011;27171;51.812;19.514;2023-04-15T10:48:47;5.28;;;4.75;;
41426;SDS011;27171;51.812;19.514;2023-04-15T10:51:51;6.38;;;4.90;;
41426;SDS011;27171;51.812;19.514;2023-04-15T10:58:12;6.32;;;4.78;;
41426;SDS011;27171;51.812;19.514;2023-04-15T11:01:16;5.80;;;5.20;;
41426;SDS011;27171;51.812;19.514;2023-04-15T11:07:52;6.40;;;5.80;;
41426;SDS011;27171;51.812;19.514;2023-04-15T11:10:56;5.95;;;5.35;;
41426;SDS011;27171;51.812;19.514;2023-04-15T11:13:58;6.88;;;5.45;;
41426;SDS011;27171;51.812;19.514;2023-04-15T11:17:00;6.65;;;6.03;;
41426;SDS011;27171;51.812;19.514;2023-04-15T11:20:03;6.22;;;5.63;;
41426;SDS011;27171;51.812;19.514;2023-04-15T11:23:07;5.10;;;4.60;;
41426;SDS011;27171;51.812;19.514;2023-04-15T11:26:10;4.55;;;4.03;;
41426;SDS011;27171;51.812;19.514;2023-04-15T11:29:16;4.22;;;3.83;;
41426;SDS011;27171;51.812;19.514;2023-04-15T11:32:20;4.95;;;4.45;;
41426;SDS011;27171;51.812;19.514;2023-04-15T11:35:22;3.88;;;3.35;;
41426;SDS011;27171;51.812;19.514;2023-04-15T11:38:25;5.20;;;4.45;;
41426;SDS011;27171;51.812;19.514;2023-04-15T11:41:27;4.60;;;3.45;;
41426;SDS011;27171;51.812;19.514;2023-04-15T11:44:29;4.15;;;3.50;;
41426;SDS011;27171;51.812;19.514;2023-04-15T11:47:32;4.57;;;4.00;;
41426;SDS011;27171;51.812;19.514;2023-04-15T11:50:37;4.25;;;3.85;;
41426;SDS011;27171;51.812;19.514;2023-04-15T11:56:48;4.65;;;3.85;;
41426;SDS011;27171;51.812;19.514;2023-04-15T11:59:53;4.38;;;3.95;;
41426;SDS011;27171;51.812;19.514;2023-04-15T12:03:10;4.15;;;3.40;;
41426;SDS011;27171;51.812;19.514;2023-04-15T12:06:16;5.78;;;4.20;;
41426;SDS011;27171;51.812;19.514;2023-04-15T12:09:17;5.13;;;4.43;;
41426;SDS011;27171;51.812;19.514;2023-04-15T12:12:19;5.78;;;4.95;;
41426;SDS011;27171;51.812;19.514;2023-04-15T12:15:21;3.67;;;3.22;;
41426;SDS011;27171;51.812;19.514;2023-04-15T12:18:22;3.40;;;2.20;;
41426;SDS011;27171;51.812;19.514;2023-04-15T12:21:26;2.45;;;1.70;;
41426;SDS011;27171;51.812;19.514;2023-04-15T12:24:29;3.35;;;1.75;;
41426;SDS011;27171;51.812;19.514;2023-04-15T12:27:32;3.25;;;1.40;;
41426;SDS011;27171;51.812;19.514;2023-04-15T12:30:33;2.28;;;1.83;;
41426;SDS011;27171;51.812;19.514;2023-04-15T12:33:34;2.70;;;1.95;;
41426;SDS011;27171;51.812;19.514;2023-04-15T12:36:36;2.72;;;2.10;;
41426;SDS011;27171;51.812;19.514;2023-04-15T12:39:41;2.60;;;1.90;;
41426;SDS011;27171;51.812;19.514;2023-04-15T12:42:43;3.47;;;2.05;;
41426;SDS011;27171;51.812;19.514;2023-04-15T12:45:45;2.45;;;1.88;;
41426;SDS011;27171;51.812;19.514;2023-04-15T12:48:46;3.55;;;2.53;;
41426;SDS011;27171;51.812;19.514;2023-04-15T12:51:48;3.90;;;2.40;;
41426;SDS011;27171;51.812;19.514;2023-04-15T12:54:49;4.10;;;2.75;;
41426;SDS011;27171;51.812;19.514;2023-04-15T12:57:50;5.63;;;2.75;;
41426;SDS011;27171;51.812;19.514;2023-04-15T13:00:52;4.30;;;3.17;;
41426;SDS011;27171;51.812;19.514;2023-04-15T13:03:54;10.73;;;6.57;;
41426;SDS011;27171;51.812;19.514;2023-04-15T13:06:56;5.18;;;3.10;;
41426;SDS011;27171;51.812;19.514;2023-04-15T13:09:57;32.58;;;18.13;;
41426;SDS011;27171;51.812;19.514;2023-04-15T13:12:59;33.78;;;20.52;;
41426;SDS011;27171;51.812;19.514;2023-04-15T13:16:00;31.77;;;21.10;;
41426;SDS011;27171;51.812;19.514;2023-04-15T13:19:02;23.85;;;18.00;;
41426;SDS011;27171;51.812;19.514;2023-04-15T13:22:03;12.18;;;9.50;;
41426;SDS011;27171;51.812;19.514;2023-04-15T13:25:07;12.45;;;8.20;;
41426;SDS011;27171;51.812;19.514;2023-04-15T13:28:10;8.48;;;5.85;;
41426;SDS011;27171;51.812;19.514;2023-04-15T13:31:12;6.22;;;4.78;;
41426;SDS011;27171;51.812;19.514;2023-04-15T13:34:13;5.90;;;4.03;;
41426;SDS011;27171;51.812;19.514;2023-04-15T13:37:14;5.85;;;3.38;;
41426;SDS011;27171;51.812;19.514;2023-04-15T13:40:18;3.78;;;2.78;;
41426;SDS011;27171;51.812;19.514;2023-04-15T13:43:20;6.15;;;4.60;;
41426;SDS011;27171;51.812;19.514;2023-04-15T13:46:21;5.07;;;3.83;;
41426;SDS011;27171;51.812;19.514;2023-04-15T13:49:22;4.32;;;3.58;;
41426;SDS011;27171;51.812;19.514;2023-04-15T13:52:23;4.50;;;3.67;;
41426;SDS011;27171;51.812;19.514;2023-04-15T13:55:24;3.83;;;3.33;;
41426;SDS011;27171;51.812;19.514;2023-04-15T13:58:25;6.00;;;4.60;;
41426;SDS011;27171;51.812;19.514;2023-04-15T14:01:27;6.07;;;4.40;;
41426;SDS011;27171;51.812;19.514;2023-04-15T14:04:29;4.15;;;3.08;;
41426;SDS011;27171;51.812;19.514;2023-04-15T14:07:31;3.47;;;2.50;;
41426;SDS011;27171;51.812;19.514;2023-04-15T14:10:33;4.10;;;3.70;;
41426;SDS011;27171;51.812;19.514;2023-04-15T14:13:35;3.08;;;2.70;;
41426;SDS011;27171;51.812;19.514;2023-04-15T14:16:36;2.55;;;2.08;;
41426;SDS011;27171;51.812;19.514;2023-04-15T14:19:37;3.22;;;2.10;;
41426;SDS011;27171;51.812;19.514;2023-04-15T14:22:38;3.83;;;2.40;;
41426;SDS011;27171;51.812;19.514;2023-04-15T14:25:39;2.95;;;1.98;;
41426;SDS011;27171;51.812;19.514;2023-04-15T14:28:41;3.58;;;2.08;;
41426;SDS011;27171;51.812;19.514;2023-04-15T14:31:42;2.70;;;1.92;;
41426;SDS011;27171;51.812;19.514;2023-04-15T14:37:44;5.72;;;5.20;;
41426;SDS011;27171;51.812;19.514;2023-04-15T14:40:45;7.32;;;6.72;;
41426;SDS011;27171;51.812;19.514;2023-04-15T14:43:46;4.05;;;3.65;;
41426;SDS011;27171;51.812;19.514;2023-04-15T14:49:48;3.10;;;2.78;;
41426;SDS011;27171;51.812;19.514;2023-04-15T14:52:49;4.25;;;3.38;;
41426;SDS011;27171;51.812;19.514;2023-04-15T14:55:50;4.88;;;3.75;;
41426;SDS011;27171;51.812;19.514;2023-04-15T14:58:51;4.95;;;3.55;;
41426;SDS011;27171;51.812;19.514;2023-04-15T15:01:53;4.03;;;2.00;;
41426;SDS011;27171;51.812;19.514;2023-04-15T15:04:54;5.75;;;2.10;;
41426;SDS011;27171;51.812;19.514;2023-04-15T15:07:56;4.75;;;3.13;;
41426;SDS011;27171;51.812;19.514;2023-04-15T15:10:57;4.45;;;4.03;;
41426;SDS011;27171;51.812;19.514;2023-04-15T15:13:59;5.20;;;4.70;;
41426;SDS011;27171;51.812;19.514;2023-04-15T15:17:01;8.25;;;5.72;;
41426;SDS011;27171;51.812;19.514;2023-04-15T15:20:03;7.82;;;6.93;;
41426;SDS011;27171;51.812;19.514;2023-04-15T15:23:06;11.43;;;9.73;;
41426;SDS011;27171;51.812;19.514;2023-04-15T15:26:07;25.75;;;23.05;;
41426;SDS011;27171;51.812;19.514;2023-04-15T15:29:08;15.55;;;13.68;;
41426;SDS011;27171;51.812;19.514;2023-04-15T15:32:10;13.40;;;12.00;;
41426;SDS011;27171;51.812;19.514;2023-04-15T15:35:11;13.73;;;12.27;;
41426;SDS011;27171;51.812;19.514;2023-04-15T15:38:12;10.88;;;9.70;;
41426;SDS011;27171;51.812;19.514;2023-04-15T15:41:13;9.70;;;8.68;;
41426;SDS011;27171;51.812;19.514;2023-04-15T15:44:15;9.77;;;8.70;;
41426;SDS011;27171;51.812;19.514;2023-04-15T15:47:18;11.50;;;8.95;;
41426;SDS011;27171;51.812;19.514;2023-04-15T15:50:21;10.18;;;8.85;;
41426;SDS011;27171;51.812;19.514;2023-04-15T15:53:22;11.23;;;9.70;;
41426;SDS011;27171;51.812;19.514;2023-04-15T15:56:23;15.07;;;12.15;;
41426;SDS011;27171;51.812;19.514;2023-04-15T15:59:25;15.68;;;11.95;;
41426;SDS011;27171;51.812;19.514;2023-04-15T16:02:26;13.27;;;9.77;;
41426;SDS011;27171;51.812;19.514;2023-04-15T16:05:27;15.25;;;12.48;;
41426;SDS011;27171;51.812;19.514;2023-04-15T16:08:29;15.10;;;12.00;;
41426;SDS011;27171;51.812;19.514;2023-04-15T16:11:30;13.85;;;12.15;;
41426;SDS011;27171;51.812;19.514;2023-04-15T16:14:31;12.82;;;10.38;;
41426;SDS011;27171;51.812;19.514;2023-04-15T16:17:32;14.15;;;11.35;;
41426;SDS011;27171;51.812;19.514;2023-04-15T16:20:34;14.85;;;13.27;;
41426;SDS011;27171;51.812;19.514;2023-04-15T16:23:37;15.50;;;13.90;;
41426;SDS011;27171;51.812;19.514;2023-04-15T16:26:41;13.98;;;12.52;;
41426;SDS011;27171;51.812;19.514;2023-04-15T16:29:44;15.20;;;11.90;;
41426;SDS011;27171;51.812;19.514;2023-04-15T16:32:45;12.90;;;11.35;;
41426;SDS011;27171;51.812;19.514;2023-04-15T16:35:46;14.48;;;12.25;;
41426;SDS011;27171;51.812;19.514;2023-04-15T16:38:48;22.92;;;11.90;;
41426;SDS011;27171;51.812;19.514;2023-04-15T16:41:50;14.23;;;10.85;;
41426;SDS011;27171;51.812;19.514;2023-04-15T16:44:53;19.33;;;15.23;;
41426;SDS011;27171;51.812;19.514;2023-04-15T16:47:55;15.00;;;12.30;;
41426;SDS011;27171;51.812;19.514;2023-04-15T16:50:56;14.27;;;11.10;;
41426;SDS011;27171;51.812;19.514;2023-04-15T16:53:57;11.85;;;10.43;;
41426;SDS011;27171;51.812;19.514;2023-04-15T16:57:00;11.45;;;9.65;;
41426;SDS011;27171;51.812;19.514;2023-04-15T17:00:01;13.95;;;10.90;;
41426;SDS011;27171;51.812;19.514;2023-04-15T17:03:03;18.73;;;15.07;;
41426;SDS011;27171;51.812;19.514;2023-04-15T17:06:05;16.13;;;12.02;;
41426;SDS011;27171;51.812;19.514;2023-04-15T17:09:06;12.90;;;11.40;;
41426;SDS011;27171;51.812;19.514;2023-04-15T17:12:07;16.30;;;13.43;;
41426;SDS011;27171;51.812;19.514;2023-04-15T17:15:09;14.52;;;12.98;;
41426;SDS011;27171;51.812;19.514;2023-04-15T17:18:11;13.02;;;11.18;;
41426;SDS011;27171;51.812;19.514;2023-04-15T17:21:15;12.27;;;10.82;;
41426;SDS011;27171;51.812;19.514;2023-04-15T17:24:18;9.90;;;8.65;;
41426;SDS011;27171;51.812;19.514;2023-04-15T17:27:24;10.68;;;9.43;;
41426;SDS011;27171;51.812;19.514;2023-04-15T17:30:26;9.95;;;8.95;;
41426;SDS011;27171;51.812;19.514;2023-04-15T17:33:47;8.88;;;7.45;;
41426;SDS011;27171;51.812;19.514;2023-04-15T17:37:08;9.57;;;8.02;;
41426;SDS011;27171;51.812;19.514;2023-04-15T17:40:30;10.90;;;9.00;;
41426;SDS011;27171;51.812;19.514;2023-04-15T17:43:51;10.30;;;8.40;;
41426;SDS011;27171;51.812;19.514;2023-04-15T17:47:13;12.60;;;9.73;;
41426;SDS011;27171;51.812;19.514;2023-04-15T17:50:34;14.25;;;10.77;;
41426;SDS011;27171;51.812;19.514;2023-04-15T17:53:55;19.25;;;13.45;;
41426;SDS011;27171;51.812;19.514;2023-04-15T18:00:39;16.08;;;11.82;;
41426;SDS011;27171;51.812;19.514;2023-04-15T18:04:01;14.68;;;11.18;;
41426;SDS011;27171;51.812;19.514;2023-04-15T18:10:46;14.25;;;11.25;;
41426;SDS011;27171;51.812;19.514;2023-04-15T18:14:08;16.90;;;14.15;;
41426;SDS011;27171;51.812;19.514;2023-04-15T18:17:30;14.75;;;13.18;;
41426;SDS011;27171;51.812;19.514;2023-04-15T18:20:48;12.90;;;11.23;;
41426;SDS011;27171;51.812;19.514;2023-04-15T18:23:50;12.27;;;10.98;;
41426;SDS011;27171;51.812;19.514;2023-04-15T18:26:52;13.43;;;11.32;;
41426;SDS011;27171;51.812;19.514;2023-04-15T18:29:54;9.80;;;8.15;;
41426;SDS011;27171;51.812;19.514;2023-04-15T18:32:56;6.18;;;5.55;;
41426;SDS011;27171;51.812;19.514;2023-04-15T18:35:57;5.68;;;4.35;;
41426;SDS011;27171;51.812;19.514;2023-04-15T18:39:00;6.10;;;4.28;;
41426;SDS011;27171;51.812;19.514;2023-04-15T18:42:02;6.40;;;4.90;;
41426;SDS011;27171;51.812;19.514;2023-04-15T18:45:05;4.75;;;3.45;;
41426;SDS011;27171;51.812;19.514;2023-04-15T18:48:07;3.53;;;2.00;;
41426;SDS011;27171;51.812;19.514;2023-04-15T18:51:10;3.22;;;2.05;;